sensor_id;sensor_type;location;lat;lon;timestamp;temperature;humidity
34008;DHT22;41085;51.594;7.138;2022-10-16T00:00:48;19.70;95.40
34008;DHT22;41085;51.594;7.138;2022-10-16T00:04:48;20.20;95.50
34008;DHT22;41085;51.594;7.138;2022-10-16T00:08:49;19.80;95.40
34008;DHT22;41085;51.594;7.138;2022-10-16T00:12:50;19.50;95.20
34008;DHT22;41085;51.594;7.138;2022-10-16T00:16:51;21.40;95.90
34008;DHT22;41085;51.594;7.138;2022-10-16T00:20:51;19.90;95.50
34008;DHT22;41085;51.594;7.138;2022-10-16T00:24:52;20.60;95.60
34008;DHT22;41085;51.594;7.138;2022-10-16T00:28:53;19.90;95.50
34008;DHT22;41085;51.594;7.138;2022-10-16T00:32:53;19.50;95.40
34008;DHT22;41085;51.594;7.138;2022-10-16T00:36:54;20.10;95.60
34008;DHT22;41085;51.594;7.138;2022-10-16T00:40:55;19.60;95.50
34008;DHT22;41085;51.594;7.138;2022-10-16T00:44:57;19.90;95.70
34008;DHT22;41085;51.594;7.138;2022-10-16T00:49:05;19.90;95.70
34008;DHT22;41085;51.594;7.138;2022-10-16T00:53:06;19.60;95.60
34008;DHT22;41085;51.594;7.138;2022-10-16T00:57:07;19.90;96.10
34008;DHT22;41085;51.594;7.138;2022-10-16T01:01:07;19.60;95.90
34008;DHT22;41085;51.594;7.138;2022-10-16T01:05:08;19.80;96.00
34008;DHT22;41085;51.594;7.138;2022-10-16T01:13:35;19.90;96.10
34008;DHT22;41085;51.594;7.138;2022-10-16T01:17:47;20.50;96.40
34008;DHT22;41085;51.594;7.138;2022-10-16T01:21:51;19.90;96.30
34008;DHT22;41085;51.594;7.138;2022-10-16T01:30:23;19.70;96.30
34008;DHT22;41085;51.594;7.138;2022-10-16T01:34:42;19.90;96.50
34008;DHT22;41085;51.594;7.138;2022-10-16T01:38:48;19.90;96.60
34008;DHT22;41085;51.594;7.138;2022-10-16T01:42:54;19.70;96.60
34008;DHT22;41085;51.594;7.138;2022-10-16T01:46:56;21.00;97.00
34008;DHT22;41085;51.594;7.138;2022-10-16T01:51:03;19.80;96.80
34008;DHT22;41085;51.594;7.138;2022-10-16T01:55:07;20.00;96.90
34008;DHT22;41085;51.594;7.138;2022-10-16T01:59:35;19.90;96.90
34008;DHT22;41085;51.594;7.138;2022-10-16T02:03:52;20.40;97.10
34008;DHT22;41085;51.594;7.138;2022-10-16T02:08:15;20.50;97.10
34008;DHT22;41085;51.594;7.138;2022-10-16T02:12:28;19.90;97.50
34008;DHT22;41085;51.594;7.138;2022-10-16T02:16:48;20.00;97.80
34008;DHT22;41085;51.594;7.138;2022-10-16T02:21:13;20.30;98.30
34008;DHT22;41085;51.594;7.138;2022-10-16T02:25:37;20.00;97.20
34008;DHT22;41085;51.594;7.138;2022-10-16T02:29:43;19.60;97.50
34008;DHT22;41085;51.594;7.138;2022-10-16T02:33:50;20.10;98.10
34008;DHT22;41085;51.594;7.138;2022-10-16T02:37:52;20.00;97.90
34008;DHT22;41085;51.594;7.138;2022-10-16T02:41:53;21.50;99.30
34008;DHT22;41085;51.594;7.138;2022-10-16T02:45:53;19.90;99.90
34008;DHT22;41085;51.594;7.138;2022-10-16T02:49:57;20.40;99.90
34008;DHT22;41085;51.594;7.138;2022-10-16T02:54:02;15.60;99.90
34008;DHT22;41085;51.594;7.138;2022-10-16T02:58:03;22.20;98.90
34008;DHT22;41085;51.594;7.138;2022-10-16T03:02:06;19.90;98.80
34008;DHT22;41085;51.594;7.138;2022-10-16T03:06:06;19.90;98.60
34008;DHT22;41085;51.594;7.138;2022-10-16T03:10:07;22.50;99.90
34008;DHT22;41085;51.594;7.138;2022-10-16T03:14:08;19.90;97.80
34008;DHT22;41085;51.594;7.138;2022-10-16T03:18:09;22.00;99.90
34008;DHT22;41085;51.594;7.138;2022-10-16T03:22:10;21.40;98.90
34008;DHT22;41085;51.594;7.138;2022-10-16T03:26:10;19.60;99.30
34008;DHT22;41085;51.594;7.138;2022-10-16T03:30:11;19.90;98.90
34008;DHT22;41085;51.594;7.138;2022-10-16T03:34:12;19.90;98.70
34008;DHT22;41085;51.594;7.138;2022-10-16T03:38:12;19.90;98.60
34008;DHT22;41085;51.594;7.138;2022-10-16T03:42:13;19.90;99.90
34008;DHT22;41085;51.594;7.138;2022-10-16T03:46:14;20.10;99.90
34008;DHT22;41085;51.594;7.138;2022-10-16T03:50:15;19.80;98.10
34008;DHT22;41085;51.594;7.138;2022-10-16T03:54:15;20.00;98.00
34008;DHT22;41085;51.594;7.138;2022-10-16T03:58:16;19.60;97.70
34008;DHT22;41085;51.594;7.138;2022-10-16T04:02:17;20.70;97.30
34008;DHT22;41085;51.594;7.138;2022-10-16T04:06:18;19.50;95.50
34008;DHT22;41085;51.594;7.138;2022-10-16T04:10:18;19.30;94.90
34008;DHT22;41085;51.594;7.138;2022-10-16T04:14:19;19.40;94.30
34008;DHT22;41085;51.594;7.138;2022-10-16T04:18:20;19.60;95.40
34008;DHT22;41085;51.594;7.138;2022-10-16T04:22:20;19.30;95.60
34008;DHT22;41085;51.594;7.138;2022-10-16T04:26:21;19.90;95.00
34008;DHT22;41085;51.594;7.138;2022-10-16T04:30:28;19.90;94.70
34008;DHT22;41085;51.594;7.138;2022-10-16T04:34:28;21.80;95.10
34008;DHT22;41085;51.594;7.138;2022-10-16T04:38:39;19.70;94.70
34008;DHT22;41085;51.594;7.138;2022-10-16T04:42:42;19.80;94.30
34008;DHT22;41085;51.594;7.138;2022-10-16T04:46:46;19.80;94.50
34008;DHT22;41085;51.594;7.138;2022-10-16T04:50:47;19.70;95.00
34008;DHT22;41085;51.594;7.138;2022-10-16T04:54:49;20.20;94.90
34008;DHT22;41085;51.594;7.138;2022-10-16T04:58:54;19.90;94.10
34008;DHT22;41085;51.594;7.138;2022-10-16T05:03:00;20.30;94.40
34008;DHT22;41085;51.594;7.138;2022-10-16T05:07:01;19.80;94.40
34008;DHT22;41085;51.594;7.138;2022-10-16T05:11:04;19.60;94.50
34008;DHT22;41085;51.594;7.138;2022-10-16T05:15:05;20.10;94.10
34008;DHT22;41085;51.594;7.138;2022-10-16T05:19:05;19.90;94.10
34008;DHT22;41085;51.594;7.138;2022-10-16T05:23:06;19.00;95.20
34008;DHT22;41085;51.594;7.138;2022-10-16T05:27:07;19.80;96.90
34008;DHT22;41085;51.594;7.138;2022-10-16T05:31:09;19.80;95.00
34008;DHT22;41085;51.594;7.138;2022-10-16T05:35:09;19.90;94.10
34008;DHT22;41085;51.594;7.138;2022-10-16T05:39:10;19.80;94.40
34008;DHT22;41085;51.594;7.138;2022-10-16T05:43:11;19.80;94.00
34008;DHT22;41085;51.594;7.138;2022-10-16T05:47:12;18.90;96.40
34008;DHT22;41085;51.594;7.138;2022-10-16T05:51:14;19.80;94.40
34008;DHT22;41085;51.594;7.138;2022-10-16T05:55:15;19.50;93.70
34008;DHT22;41085;51.594;7.138;2022-10-16T05:59:16;19.80;94.00
34008;DHT22;41085;51.594;7.138;2022-10-16T06:03:16;20.10;94.30
34008;DHT22;41085;51.594;7.138;2022-10-16T06:07:17;20.90;94.80
34008;DHT22;41085;51.594;7.138;2022-10-16T06:11:21;19.60;94.60
34008;DHT22;41085;51.594;7.138;2022-10-16T06:15:21;19.50;93.80
34008;DHT22;41085;51.594;7.138;2022-10-16T06:19:22;20.30;93.80
34008;DHT22;41085;51.594;7.138;2022-10-16T06:23:23;20.60;94.80
34008;DHT22;41085;51.594;7.138;2022-10-16T06:27:24;20.10;93.50
34008;DHT22;41085;51.594;7.138;2022-10-16T06:31:25;20.30;94.00
34008;DHT22;41085;51.594;7.138;2022-10-16T06:35:27;19.50;93.70
34008;DHT22;41085;51.594;7.138;2022-10-16T06:39:29;20.40;93.70
34008;DHT22;41085;51.594;7.138;2022-10-16T06:43:30;20.00;94.00
34008;DHT22;41085;51.594;7.138;2022-10-16T06:47:40;19.90;93.30
34008;DHT22;41085;51.594;7.138;2022-10-16T06:51:41;19.90;93.90
34008;DHT22;41085;51.594;7.138;2022-10-16T06:55:47;19.60;93.20
34008;DHT22;41085;51.594;7.138;2022-10-16T06:59:48;20.60;94.00
34008;DHT22;41085;51.594;7.138;2022-10-16T07:03:49;19.70;94.10
34008;DHT22;41085;51.594;7.138;2022-10-16T07:07:53;19.90;93.70
34008;DHT22;41085;51.594;7.138;2022-10-16T07:11:54;22.70;94.30
34008;DHT22;41085;51.594;7.138;2022-10-16T07:15:55;19.40;93.60
34008;DHT22;41085;51.594;7.138;2022-10-16T07:19:55;19.80;93.40
34008;DHT22;41085;51.594;7.138;2022-10-16T07:23:58;20.10;93.50
34008;DHT22;41085;51.594;7.138;2022-10-16T07:27:59;19.60;93.00
34008;DHT22;41085;51.594;7.138;2022-10-16T07:31:59;21.00;93.40
34008;DHT22;41085;51.594;7.138;2022-10-16T07:36:06;19.40;92.90
34008;DHT22;41085;51.594;7.138;2022-10-16T07:40:07;19.90;93.20
34008;DHT22;41085;51.594;7.138;2022-10-16T07:44:15;19.50;93.20
34008;DHT22;41085;51.594;7.138;2022-10-16T07:48:17;19.60;92.90
34008;DHT22;41085;51.594;7.138;2022-10-16T07:52:17;19.60;92.90
34008;DHT22;41085;51.594;7.138;2022-10-16T07:56:47;19.80;93.50
34008;DHT22;41085;51.594;7.138;2022-10-16T08:01:23;18.60;92.50
34008;DHT22;41085;51.594;7.138;2022-10-16T08:05:27;19.50;93.00
34008;DHT22;41085;51.594;7.138;2022-10-16T08:09:27;19.60;92.90
34008;DHT22;41085;51.594;7.138;2022-10-16T08:13:28;19.90;93.70
34008;DHT22;41085;51.594;7.138;2022-10-16T08:17:28;19.90;92.90
34008;DHT22;41085;51.594;7.138;2022-10-16T08:21:29;20.30;93.40
34008;DHT22;41085;51.594;7.138;2022-10-16T08:25:30;19.90;92.90
34008;DHT22;41085;51.594;7.138;2022-10-16T08:29:31;19.70;93.00
34008;DHT22;41085;51.594;7.138;2022-10-16T08:33:31;19.80;93.30
34008;DHT22;41085;51.594;7.138;2022-10-16T08:37:32;19.90;93.50
34008;DHT22;41085;51.594;7.138;2022-10-16T08:46:58;19.90;92.70
34008;DHT22;41085;51.594;7.138;2022-10-16T08:50:39;19.90;92.60
34008;DHT22;41085;51.594;7.138;2022-10-16T08:54:47;19.50;92.60
34008;DHT22;41085;51.594;7.138;2022-10-16T08:58:50;19.90;92.80
34008;DHT22;41085;51.594;7.138;2022-10-16T09:11:51;19.80;92.50
34008;DHT22;41085;51.594;7.138;2022-10-16T09:16:27;19.70;92.80
34008;DHT22;41085;51.594;7.138;2022-10-16T09:24:41;19.60;92.50
34008;DHT22;41085;51.594;7.138;2022-10-16T09:28:42;20.10;93.80
34008;DHT22;41085;51.594;7.138;2022-10-16T09:32:43;19.90;93.00
34008;DHT22;41085;51.594;7.138;2022-10-16T09:36:46;20.10;93.00
34008;DHT22;41085;51.594;7.138;2022-10-16T09:40:47;19.90;93.10
34008;DHT22;41085;51.594;7.138;2022-10-16T09:44:49;19.90;93.60
34008;DHT22;41085;51.594;7.138;2022-10-16T09:48:53;19.80;92.60
34008;DHT22;41085;51.594;7.138;2022-10-16T09:53:05;19.80;92.70
34008;DHT22;41085;51.594;7.138;2022-10-16T09:57:19;20.90;93.20
34008;DHT22;41085;51.594;7.138;2022-10-16T10:05:48;19.60;93.10
34008;DHT22;41085;51.594;7.138;2022-10-16T10:09:50;20.00;93.80
34008;DHT22;41085;51.594;7.138;2022-10-16T10:13:51;19.90;92.50
34008;DHT22;41085;51.594;7.138;2022-10-16T10:17:56;19.90;93.00
34008;DHT22;41085;51.594;7.138;2022-10-16T10:21:57;19.80;92.60
34008;DHT22;41085;51.594;7.138;2022-10-16T10:26:20;20.30;93.50
34008;DHT22;41085;51.594;7.138;2022-10-16T10:30:29;19.80;92.50
34008;DHT22;41085;51.594;7.138;2022-10-16T10:34:52;19.80;92.60
34008;DHT22;41085;51.594;7.138;2022-10-16T10:39:11;19.80;92.70
34008;DHT22;41085;51.594;7.138;2022-10-16T10:43:20;19.80;92.50
34008;DHT22;41085;51.594;7.138;2022-10-16T10:52:33;20.10;92.50
34008;DHT22;41085;51.594;7.138;2022-10-16T11:01:13;20.20;92.60
34008;DHT22;41085;51.594;7.138;2022-10-16T11:05:28;19.80;92.60
34008;DHT22;41085;51.594;7.138;2022-10-16T11:09:40;19.90;92.50
34008;DHT22;41085;51.594;7.138;2022-10-16T11:13:58;20.00;92.70
34008;DHT22;41085;51.594;7.138;2022-10-16T11:26:39;20.80;93.00
34008;DHT22;41085;51.594;7.138;2022-10-16T11:30:46;20.10;92.70
34008;DHT22;41085;51.594;7.138;2022-10-16T11:35:02;20.20;93.20
34008;DHT22;41085;51.594;7.138;2022-10-16T11:43:37;20.00;93.50
34008;DHT22;41085;51.594;7.138;2022-10-16T11:47:51;20.00;92.50
34008;DHT22;41085;51.594;7.138;2022-10-16T11:56:17;20.00;92.70
34008;DHT22;41085;51.594;7.138;2022-10-16T12:00:32;20.00;93.20
34008;DHT22;41085;51.594;7.138;2022-10-16T12:09:29;20.20;92.60
34008;DHT22;41085;51.594;7.138;2022-10-16T12:13:39;20.20;92.90
34008;DHT22;41085;51.594;7.138;2022-10-16T12:17:42;20.10;92.70
34008;DHT22;41085;51.594;7.138;2022-10-16T12:21:44;19.90;93.60
34008;DHT22;41085;51.594;7.138;2022-10-16T12:26:05;20.00;92.60
34008;DHT22;41085;51.594;7.138;2022-10-16T12:30:20;19.90;92.60
34008;DHT22;41085;51.594;7.138;2022-10-16T12:34:41;20.40;93.40
34008;DHT22;41085;51.594;7.138;2022-10-16T12:39:03;20.10;92.80
34008;DHT22;41085;51.594;7.138;2022-10-16T12:47:37;19.90;92.50
34008;DHT22;41085;51.594;7.138;2022-10-16T12:51:38;20.10;92.70
34008;DHT22;41085;51.594;7.138;2022-10-16T13:09:36;20.30;92.60
34008;DHT22;41085;51.594;7.138;2022-10-16T13:18:13;20.50;93.00
34008;DHT22;41085;51.594;7.138;2022-10-16T13:31:22;20.80;92.70
34008;DHT22;41085;51.594;7.138;2022-10-16T13:35:34;20.50;93.30
34008;DHT22;41085;51.594;7.138;2022-10-16T13:39:35;20.20;93.00
34008;DHT22;41085;51.594;7.138;2022-10-16T13:43:48;20.20;93.30
34008;DHT22;41085;51.594;7.138;2022-10-16T13:48:16;20.20;92.80
34008;DHT22;41085;51.594;7.138;2022-10-16T13:52:24;20.00;93.00
34008;DHT22;41085;51.594;7.138;2022-10-16T13:56:29;20.20;94.30
34008;DHT22;41085;51.594;7.138;2022-10-16T14:00:30;20.40;92.70
34008;DHT22;41085;51.594;7.138;2022-10-16T14:04:38;20.20;93.30
34008;DHT22;41085;51.594;7.138;2022-10-16T14:08:43;22.50;93.20
34008;DHT22;41085;51.594;7.138;2022-10-16T14:12:55;20.20;93.00
34008;DHT22;41085;51.594;7.138;2022-10-16T14:17:51;20.10;92.70
34008;DHT22;41085;51.594;7.138;2022-10-16T14:21:51;20.10;92.50
34008;DHT22;41085;51.594;7.138;2022-10-16T14:30:29;20.20;93.50
34008;DHT22;41085;51.594;7.138;2022-10-16T14:34:34;20.20;93.00
34008;DHT22;41085;51.594;7.138;2022-10-16T14:39:13;20.10;92.70
34008;DHT22;41085;51.594;7.138;2022-10-16T14:43:43;20.10;92.60
34008;DHT22;41085;51.594;7.138;2022-10-16T14:48:01;20.20;92.90
34008;DHT22;41085;51.594;7.138;2022-10-16T14:52:18;20.30;92.90
34008;DHT22;41085;51.594;7.138;2022-10-16T14:56:46;20.30;93.60
34008;DHT22;41085;51.594;7.138;2022-10-16T15:00:56;20.20;92.50
34008;DHT22;41085;51.594;7.138;2022-10-16T15:05:17;20.00;92.70
34008;DHT22;41085;51.594;7.138;2022-10-16T15:09:23;17.90;91.80
34008;DHT22;41085;51.594;7.138;2022-10-16T15:13:29;20.20;92.50
34008;DHT22;41085;51.594;7.138;2022-10-16T15:17:31;20.10;92.80
34008;DHT22;41085;51.594;7.138;2022-10-16T15:22:04;20.90;92.90
34008;DHT22;41085;51.594;7.138;2022-10-16T15:26:19;20.10;93.00
34008;DHT22;41085;51.594;7.138;2022-10-16T15:30:20;20.40;93.50
34008;DHT22;41085;51.594;7.138;2022-10-16T15:34:20;20.20;93.60
34008;DHT22;41085;51.594;7.138;2022-10-16T15:38:22;20.40;93.50
34008;DHT22;41085;51.594;7.138;2022-10-16T15:42:23;19.90;92.60
34008;DHT22;41085;51.594;7.138;2022-10-16T15:46:24;20.20;93.80
34008;DHT22;41085;51.594;7.138;2022-10-16T15:50:24;20.50;93.40
34008;DHT22;41085;51.594;7.138;2022-10-16T15:54:25;20.00;93.10
34008;DHT22;41085;51.594;7.138;2022-10-16T15:58:27;22.70;93.90
34008;DHT22;41085;51.594;7.138;2022-10-16T16:02:28;21.80;94.00
34008;DHT22;41085;51.594;7.138;2022-10-16T16:06:30;17.80;92.20
34008;DHT22;41085;51.594;7.138;2022-10-16T16:10:31;20.00;93.50
34008;DHT22;41085;51.594;7.138;2022-10-16T16:14:32;20.30;93.50
34008;DHT22;41085;51.594;7.138;2022-10-16T16:18:32;21.00;93.10
34008;DHT22;41085;51.594;7.138;2022-10-16T16:22:33;22.20;94.00
34008;DHT22;41085;51.594;7.138;2022-10-16T16:26:34;20.20;93.10
34008;DHT22;41085;51.594;7.138;2022-10-16T16:30:37;20.10;92.40
34008;DHT22;41085;51.594;7.138;2022-10-16T16:34:41;19.80;92.90
34008;DHT22;41085;51.594;7.138;2022-10-16T16:38:47;21.50;94.10
34008;DHT22;41085;51.594;7.138;2022-10-16T16:42:48;21.90;93.70
34008;DHT22;41085;51.594;7.138;2022-10-16T16:46:49;19.90;92.80
34008;DHT22;41085;51.594;7.138;2022-10-16T16:50:51;19.80;92.50
34008;DHT22;41085;51.594;7.138;2022-10-16T16:54:52;21.10;93.50
34008;DHT22;41085;51.594;7.138;2022-10-16T16:58:55;20.10;92.90
34008;DHT22;41085;51.594;7.138;2022-10-16T17:02:55;20.00;92.40
34008;DHT22;41085;51.594;7.138;2022-10-16T17:06:56;20.10;93.00
34008;DHT22;41085;51.594;7.138;2022-10-16T17:10:57;20.10;92.90
34008;DHT22;41085;51.594;7.138;2022-10-16T17:14:58;20.00;92.70
34008;DHT22;41085;51.594;7.138;2022-10-16T17:19:00;20.50;93.30
34008;DHT22;41085;51.594;7.138;2022-10-16T17:23:01;20.10;92.30
34008;DHT22;41085;51.594;7.138;2022-10-16T17:27:02;20.30;93.60
34008;DHT22;41085;51.594;7.138;2022-10-16T17:31:24;20.20;92.90
34008;DHT22;41085;51.594;7.138;2022-10-16T17:35:25;19.90;92.20
34008;DHT22;41085;51.594;7.138;2022-10-16T17:39:26;19.90;92.80
34008;DHT22;41085;51.594;7.138;2022-10-16T17:43:26;19.90;92.60
34008;DHT22;41085;51.594;7.138;2022-10-16T17:47:27;20.10;92.60
34008;DHT22;41085;51.594;7.138;2022-10-16T17:51:30;19.90;93.20
34008;DHT22;41085;51.594;7.138;2022-10-16T17:55:31;20.80;92.90
34008;DHT22;41085;51.594;7.138;2022-10-16T17:59:36;20.00;92.20
34008;DHT22;41085;51.594;7.138;2022-10-16T18:03:37;22.60;93.40
34008;DHT22;41085;51.594;7.138;2022-10-16T18:07:37;19.90;92.70
34008;DHT22;41085;51.594;7.138;2022-10-16T18:11:38;20.40;92.60
34008;DHT22;41085;51.594;7.138;2022-10-16T18:15:39;20.40;93.60
34008;DHT22;41085;51.594;7.138;2022-10-16T18:19:39;19.90;93.20
34008;DHT22;41085;51.594;7.138;2022-10-16T18:23:40;20.00;92.80
34008;DHT22;41085;51.594;7.138;2022-10-16T18:27:41;19.50;92.30
34008;DHT22;41085;51.594;7.138;2022-10-16T18:31:41;20.10;92.60
34008;DHT22;41085;51.594;7.138;2022-10-16T18:35:43;19.80;92.80
34008;DHT22;41085;51.594;7.138;2022-10-16T18:39:46;20.10;92.80
34008;DHT22;41085;51.594;7.138;2022-10-16T18:43:50;20.00;92.20
34008;DHT22;41085;51.594;7.138;2022-10-16T18:47:50;20.10;92.60
34008;DHT22;41085;51.594;7.138;2022-10-16T18:51:51;19.80;92.40
34008;DHT22;41085;51.594;7.138;2022-10-16T18:55:55;19.90;92.60
34008;DHT22;41085;51.594;7.138;2022-10-16T18:59:56;22.50;93.10
34008;DHT22;41085;51.594;7.138;2022-10-16T19:04:03;20.10;92.30
34008;DHT22;41085;51.594;7.138;2022-10-16T19:08:04;20.10;92.30
34008;DHT22;41085;51.594;7.138;2022-10-16T19:12:05;20.60;93.00
34008;DHT22;41085;51.594;7.138;2022-10-16T19:16:27;20.30;92.40
34008;DHT22;41085;51.594;7.138;2022-10-16T19:20:36;20.00;92.20
34008;DHT22;41085;51.594;7.138;2022-10-16T19:24:37;20.50;93.50
34008;DHT22;41085;51.594;7.138;2022-10-16T19:28:38;20.00;93.80
34008;DHT22;41085;51.594;7.138;2022-10-16T19:32:39;19.80;92.10
34008;DHT22;41085;51.594;7.138;2022-10-16T19:36:40;19.90;92.70
34008;DHT22;41085;51.594;7.138;2022-10-16T19:40:40;20.30;93.30
34008;DHT22;41085;51.594;7.138;2022-10-16T19:44:41;20.80;92.60
34008;DHT22;41085;51.594;7.138;2022-10-16T19:48:42;21.70;92.90
34008;DHT22;41085;51.594;7.138;2022-10-16T19:52:43;20.20;92.40
34008;DHT22;41085;51.594;7.138;2022-10-16T19:56:44;20.00;92.70
34008;DHT22;41085;51.594;7.138;2022-10-16T20:00:45;20.00;92.90
34008;DHT22;41085;51.594;7.138;2022-10-16T20:04:45;20.20;93.50
34008;DHT22;41085;51.594;7.138;2022-10-16T20:08:48;19.70;92.80
34008;DHT22;41085;51.594;7.138;2022-10-16T20:12:51;20.60;92.40
34008;DHT22;41085;51.594;7.138;2022-10-16T20:16:52;20.30;92.80
34008;DHT22;41085;51.594;7.138;2022-10-16T20:20:52;20.70;93.00
34008;DHT22;41085;51.594;7.138;2022-10-16T20:24:53;19.70;92.50
34008;DHT22;41085;51.594;7.138;2022-10-16T20:28:53;20.20;92.90
34008;DHT22;41085;51.594;7.138;2022-10-16T20:32:54;20.00;93.10
34008;DHT22;41085;51.594;7.138;2022-10-16T20:36:56;20.20;93.40
34008;DHT22;41085;51.594;7.138;2022-10-16T20:41:02;20.10;92.60
34008;DHT22;41085;51.594;7.138;2022-10-16T20:45:03;20.60;92.40
34008;DHT22;41085;51.594;7.138;2022-10-16T20:49:04;20.20;92.90
34008;DHT22;41085;51.594;7.138;2022-10-16T20:53:06;19.80;92.80
34008;DHT22;41085;51.594;7.138;2022-10-16T20:57:07;20.20;93.10
34008;DHT22;41085;51.594;7.138;2022-10-16T21:01:10;20.20;92.80
34008;DHT22;41085;51.594;7.138;2022-10-16T21:05:11;20.10;92.30
34008;DHT22;41085;51.594;7.138;2022-10-16T21:09:11;20.30;92.80
34008;DHT22;41085;51.594;7.138;2022-10-16T21:13:12;21.60;92.70
34008;DHT22;41085;51.594;7.138;2022-10-16T21:17:13;20.10;93.10
34008;DHT22;41085;51.594;7.138;2022-10-16T21:21:22;19.90;92.70
34008;DHT22;41085;51.594;7.138;2022-10-16T21:25:22;19.80;92.50
34008;DHT22;41085;51.594;7.138;2022-10-16T21:29:23;20.00;92.90
34008;DHT22;41085;51.594;7.138;2022-10-16T21:33:24;19.90;92.70
34008;DHT22;41085;51.594;7.138;2022-10-16T21:37:24;20.10;93.30
34008;DHT22;41085;51.594;7.138;2022-10-16T21:41:27;20.20;93.80
34008;DHT22;41085;51.594;7.138;2022-10-16T21:45:28;19.80;93.10
34008;DHT22;41085;51.594;7.138;2022-10-16T21:49:28;22.00;94.20
34008;DHT22;41085;51.594;7.138;2022-10-16T21:53:29;19.90;94.50
34008;DHT22;41085;51.594;7.138;2022-10-16T21:57:29;20.00;93.90
34008;DHT22;41085;51.594;7.138;2022-10-16T22:01:30;19.90;93.40
34008;DHT22;41085;51.594;7.138;2022-10-16T22:05:34;19.80;93.10
34008;DHT22;41085;51.594;7.138;2022-10-16T22:09:35;20.70;93.60
34008;DHT22;41085;51.594;7.138;2022-10-16T22:13:36;20.00;93.80
34008;DHT22;41085;51.594;7.138;2022-10-16T22:17:37;24.00;95.40
34008;DHT22;41085;51.594;7.138;2022-10-16T22:21:40;23.10;96.50
34008;DHT22;41085;51.594;7.138;2022-10-16T22:25:41;20.20;94.90
34008;DHT22;41085;51.594;7.138;2022-10-16T22:29:42;17.80;96.60
34008;DHT22;41085;51.594;7.138;2022-10-16T22:33:43;23.00;96.80
34008;DHT22;41085;51.594;7.138;2022-10-16T22:37:44;19.90;95.00
34008;DHT22;41085;51.594;7.138;2022-10-16T22:41:44;19.90;95.20
34008;DHT22;41085;51.594;7.138;2022-10-16T22:45:45;20.00;95.60
34008;DHT22;41085;51.594;7.138;2022-10-16T22:49:46;19.90;95.90
34008;DHT22;41085;51.594;7.138;2022-10-16T22:53:48;20.00;96.00
34008;DHT22;41085;51.594;7.138;2022-10-16T22:57:49;19.80;94.80
34008;DHT22;41085;51.594;7.138;2022-10-16T23:01:49;20.40;96.70
34008;DHT22;41085;51.594;7.138;2022-10-16T23:05:50;21.80;96.00
34008;DHT22;41085;51.594;7.138;2022-10-16T23:09:51;19.70;94.90
34008;DHT22;41085;51.594;7.138;2022-10-16T23:13:53;22.10;96.00
34008;DHT22;41085;51.594;7.138;2022-10-16T23:17:54;21.60;95.40
34008;DHT22;41085;51.594;7.138;2022-10-16T23:21:56;20.10;95.70
34008;DHT22;41085;51.594;7.138;2022-10-16T23:26:22;20.20;95.20
34008;DHT22;41085;51.594;7.138;2022-10-16T23:30:50;20.20;95.00
34008;DHT22;41085;51.594;7.138;2022-10-16T23:35:04;19.80;96.00
34008;DHT22;41085;51.594;7.138;2022-10-16T23:39:11;19.90;95.20
34008;DHT22;41085;51.594;7.138;2022-10-16T23:43:28;20.10;95.60
34008;DHT22;41085;51.594;7.138;2022-10-16T23:47:34;20.10;95.50
34008;DHT22;41085;51.594;7.138;2022-10-16T23:51:39;20.10;96.10
34008;DHT22;41085;51.594;7.138;2022-10-16T23:55:56;20.30;96.60
